Time;durP1;ratioP1;P1;durP2;ratioP2;P2;SDS_P1;SDS_P2;PMS_P1;PMS_P2;Temp;Humidity;BMP_temperature;BMP_pressure;BME280_temperature;BME280_humidity;BME280_pressure;Samples;Min_cycle;Max_cycle;Signal;HPM_P1;HPM_P2
2023/03/31 00:00:32;;;;;;;12.93;5.80;;;11.20;99.90;;;;;;4981935;28;20641;-69
2023/03/31 00:03:01;;;;;;;12.37;5.60;;;11.20;99.90;;;;;;4976698;28;20485;-69
2023/03/31 00:05:32;;;;;;;17.47;6.00;;;11.20;99.90;;;;;;4987468;28;20910;-68
2023/03/31 00:08:01;;;;;;;9.83;5.20;;;11.20;99.90;;;;;;4987648;28;21210;-69
2023/03/31 00:10:30;;;;;;;9.57;4.70;;;11.20;99.90;;;;;;4979814;28;20492;-69
2023/03/31 00:12:59;;;;;;;14.30;6.40;;;11.20;99.90;;;;;;4957923;28;20493;-69
2023/03/31 00:15:27;;;;;;;12.20;6.30;;;11.20;99.90;;;;;;4979798;28;20476;-69
2023/03/31 00:17:59;;;;;;;9.00;4.70;;;11.20;99.90;;;;;;4973927;28;20491;-69
2023/03/31 00:20:27;;;;;;;8.90;5.10;;;11.20;99.90;;;;;;4983530;28;20547;-69
2023/03/31 00:22:56;;;;;;;12.60;4.83;;;11.20;99.90;;;;;;4985127;28;20489;-69
2023/03/31 00:25:25;;;;;;;10.60;4.57;;;11.20;99.90;;;;;;4983400;28;21161;-68
2023/03/31 00:27:54;;;;;;;17.20;5.60;;;11.10;99.90;;;;;;4981721;28;20511;-68
2023/03/31 00:30:21;;;;;;;12.23;5.20;;;11.10;99.90;;;;;;4985456;28;20967;-69
2023/03/31 00:32:49;;;;;;;11.97;4.90;;;11.10;99.90;;;;;;4982589;28;20503;-69
2023/03/31 00:35:18;;;;;;;11.83;4.43;;;11.10;99.90;;;;;;4987891;28;21049;-68
2023/03/31 00:37:46;;;;;;;11.40;4.30;;;11.10;99.90;;;;;;4973916;28;20472;-69
2023/03/31 00:40:14;;;;;;;7.23;3.83;;;11.10;99.90;;;;;;4972467;28;21466;-67
2023/03/31 00:42:45;;;;;;;8.73;3.70;;;11.10;99.90;;;;;;4976730;28;20492;-67
2023/03/31 00:45:26;;;;;;;10.07;4.63;;;11.10;99.90;;;;;;4973292;28;20500;-67
2023/03/31 00:47:57;;;;;;;9.63;3.50;;;11.10;99.90;;;;;;4975632;28;20508;-68
2023/03/31 00:50:29;;;;;;;12.67;4.10;;;11.10;99.90;;;;;;4977802;28;20500;-68
2023/03/31 00:53:01;;;;;;;10.63;4.10;;;11.00;99.90;;;;;;4975217;28;20493;-67
2023/03/31 00:55:35;;;;;;;9.53;3.70;;;11.00;99.90;;;;;;4977905;28;21164;-68
2023/03/31 00:58:07;;;;;;;11.50;3.97;;;11.00;99.90;;;;;;4970946;28;20836;-68
2023/03/31 01:00:35;;;;;;;13.23;4.17;;;11.00;99.90;;;;;;4970717;28;21109;-68
2023/03/31 01:03:08;;;;;;;9.07;3.77;;;11.00;99.90;;;;;;4968024;28;20520;-70
2023/03/31 01:05:42;;;;;;;9.57;3.50;;;11.00;99.90;;;;;;4978280;28;20493;-68
2023/03/31 01:08:11;;;;;;;10.67;3.40;;;11.00;99.90;;;;;;4981366;28;20981;-69
2023/03/31 01:10:43;;;;;;;9.70;3.70;;;11.00;99.90;;;;;;4979158;28;20489;-67
2023/03/31 01:13:14;;;;;;;8.27;3.23;;;10.90;99.90;;;;;;4971550;28;20577;-69
2023/03/31 01:15:43;;;;;;;7.47;3.10;;;10.90;99.90;;;;;;4980321;28;20547;-69
2023/03/31 01:18:12;;;;;;;12.43;3.47;;;10.90;99.90;;;;;;4970103;28;21032;-69
2023/03/31 01:20:55;;;;;;;10.30;4.37;;;10.90;99.90;;;;;;4983128;28;20521;-69
2023/03/31 01:23:52;;;;;;;10.83;3.50;;;10.90;99.90;;;;;;4985492;28;21179;-69
2023/03/31 01:26:49;;;;;;;8.47;4.07;;;10.90;99.90;;;;;;4979111;28;20496;-68
2023/03/31 01:30:05;;;;;;;10.83;3.60;;;10.90;99.90;;;;;;4980681;28;20473;-69
2023/03/31 01:33:09;;;;;;;10.57;4.33;;;10.90;99.90;;;;;;4901156;29;20561;-69
2023/03/31 01:36:11;;;;;;;8.43;3.53;;;10.90;99.90;;;;;;4980428;28;20469;-69
2023/03/31 01:39:06;;;;;;;7.93;3.40;;;10.90;99.90;;;;;;4976302;28;20468;-69
2023/03/31 01:41:51;;;;;;;12.37;3.73;;;10.90;99.90;;;;;;4979342;28;21033;-69
2023/03/31 01:44:28;;;;;;;9.70;3.40;;;10.90;99.90;;;;;;4975378;28;20556;-68
2023/03/31 01:46:58;;;;;;;9.03;3.77;;;10.90;99.90;;;;;;4978292;28;20476;-69
2023/03/31 01:49:34;;;;;;;12.47;3.70;;;10.90;99.90;;;;;;4973098;28;20473;-68
2023/03/31 01:52:08;;;;;;;10.53;4.40;;;10.90;99.90;;;;;;4981823;28;21013;-69
2023/03/31 01:54:39;;;;;;;9.53;3.30;;;10.90;99.90;;;;;;4982612;28;20477;-69
2023/03/31 01:57:14;;;;;;;10.67;3.40;;;10.90;99.90;;;;;;4977523;28;20473;-68
2023/03/31 01:59:51;;;;;;;7.40;3.37;;;10.90;99.90;;;;;;4986241;28;20480;-68
2023/03/31 02:02:25;;;;;;;8.40;3.73;;;10.90;99.90;;;;;;4984709;28;20489;-68
2023/03/31 02:04:58;;;;;;;9.60;3.50;;;11.00;99.90;;;;;;4986120;28;20500;-69
2023/03/31 02:07:30;;;;;;;8.23;3.97;;;10.90;99.90;;;;;;4990364;28;20523;-69
2023/03/31 02:10:02;;;;;;;10.40;3.70;;;10.90;99.90;;;;;;4981970;28;20479;-69
2023/03/31 02:12:34;;;;;;;10.13;4.10;;;10.90;99.90;;;;;;4986847;28;20859;-69
2023/03/31 02:15:05;;;;;;;9.50;3.23;;;10.90;99.90;;;;;;4985629;28;20479;-69
2023/03/31 02:17:34;;;;;;;11.40;4.00;;;10.90;99.90;;;;;;4992086;28;20472;-68
2023/03/31 02:20:10;;;;;;;8.73;3.90;;;10.90;99.90;;;;;;4989703;28;20503;-68
2023/03/31 02:22:41;;;;;;;9.10;3.70;;;11.00;99.90;;;;;;4991278;28;20480;-69
2023/03/31 02:25:13;;;;;;;10.80;5.07;;;11.00;99.90;;;;;;4991108;28;20803;-69
2023/03/31 02:27:46;;;;;;;8.50;4.00;;;10.90;99.90;;;;;;4984254;28;20483;-68
2023/03/31 02:30:14;;;;;;;8.53;4.07;;;11.00;99.90;;;;;;4994368;28;20490;-69
2023/03/31 02:32:45;;;;;;;7.13;3.93;;;10.90;99.90;;;;;;4989377;28;20492;-68
2023/03/31 02:35:16;;;;;;;10.00;4.13;;;10.90;99.90;;;;;;4980214;28;20465;-68
2023/03/31 02:37:45;;;;;;;7.83;4.30;;;10.90;99.90;;;;;;4986953;28;20495;-69
2023/03/31 02:40:18;;;;;;;7.70;4.40;;;10.90;99.90;;;;;;4984753;28;20497;-69
2023/03/31 02:42:48;;;;;;;8.33;4.13;;;10.90;99.90;;;;;;4974698;28;20539;-69
2023/03/31 02:45:50;;;;;;;13.03;5.93;;;10.90;99.90;;;;;;4976451;28;20501;-68
2023/03/31 02:48:21;;;;;;;10.00;4.23;;;10.90;99.90;;;;;;4916937;29;20549;-68
2023/03/31 02:51:20;;;;;;;8.20;4.23;;;10.90;99.90;;;;;;4917973;29;20541;-68
2023/03/31 02:54:14;;;;;;;8.10;4.20;;;10.90;99.90;;;;;;4961665;28;20493;-68
2023/03/31 02:56:58;;;;;;;8.13;4.00;;;10.80;99.90;;;;;;4977205;28;21014;-68
2023/03/31 02:59:37;;;;;;;8.63;4.87;;;10.80;99.90;;;;;;4979128;28;21049;-66
2023/03/31 03:02:15;;;;;;;8.30;4.73;;;10.80;99.90;;;;;;4965259;28;20487;-67
2023/03/31 03:04:58;;;;;;;8.43;4.60;;;10.80;99.90;;;;;;4979180;28;20472;-67
2023/03/31 03:07:34;;;;;;;10.33;4.83;;;10.80;99.90;;;;;;4982724;28;20500;-68
2023/03/31 03:10:07;;;;;;;9.90;4.83;;;10.80;99.90;;;;;;4972335;28;20868;-68
2023/03/31 03:12:48;;;;;;;7.10;4.77;;;10.70;99.90;;;;;;4975914;28;20567;-66
2023/03/31 03:15:23;;;;;;;10.57;4.93;;;10.80;99.90;;;;;;4976802;28;20465;-67
2023/03/31 03:17:52;;;;;;;11.40;5.13;;;10.80;99.90;;;;;;4979726;28;20484;-68
2023/03/31 03:20:21;;;;;;;7.67;4.50;;;10.80;99.90;;;;;;4974535;28;20536;-68
2023/03/31 03:22:49;;;;;;;10.90;5.03;;;10.80;99.90;;;;;;4969593;28;20492;-68
2023/03/31 03:25:19;;;;;;;10.57;5.73;;;10.70;99.90;;;;;;4977156;28;20483;-67
2023/03/31 03:27:47;;;;;;;10.47;5.00;;;10.70;99.90;;;;;;4970883;28;21001;-67
2023/03/31 03:30:17;;;;;;;11.13;5.40;;;10.70;99.90;;;;;;4970396;28;20493;-67
2023/03/31 03:32:45;;;;;;;10.00;5.50;;;10.70;99.90;;;;;;4976941;28;20506;-69
2023/03/31 03:35:13;;;;;;;10.80;5.53;;;10.70;99.90;;;;;;4982492;28;20469;-66
2023/03/31 03:37:41;;;;;;;10.67;5.60;;;10.70;99.90;;;;;;4987785;28;20473;-67
2023/03/31 03:40:10;;;;;;;10.10;5.27;;;10.70;99.90;;;;;;4979632;28;20497;-67
2023/03/31 03:42:38;;;;;;;10.07;5.60;;;10.70;99.90;;;;;;4972436;28;20500;-68
2023/03/31 03:45:07;;;;;;;11.10;5.43;;;10.70;99.90;;;;;;4979100;28;21003;-68
2023/03/31 03:47:36;;;;;;;10.60;5.80;;;10.70;99.90;;;;;;4977555;28;20573;-66
2023/03/31 03:50:05;;;;;;;10.73;5.80;;;10.60;99.90;;;;;;4983516;28;20517;-67
2023/03/31 03:52:33;;;;;;;9.33;5.77;;;10.60;99.90;;;;;;4978230;28;20481;-68
2023/03/31 03:55:02;;;;;;;12.67;5.77;;;10.60;99.90;;;;;;4977646;28;20470;-67
2023/03/31 03:57:30;;;;;;;6.23;5.10;;;10.60;99.90;;;;;;4976551;28;20475;-70
2023/03/31 03:59:58;;;;;;;11.47;5.03;;;10.70;99.90;;;;;;4980572;28;20856;-70
2023/03/31 04:02:27;;;;;;;8.03;5.43;;;10.70;99.90;;;;;;4976113;28;20496;-67
2023/03/31 04:04:57;;;;;;;7.03;5.27;;;10.70;99.90;;;;;;4987538;28;20504;-67
2023/03/31 04:07:25;;;;;;;6.60;5.27;;;10.70;99.90;;;;;;4984956;28;20552;-67
2023/03/31 04:09:53;;;;;;;7.77;5.53;;;10.70;99.90;;;;;;4986900;28;20480;-67
2023/03/31 04:12:21;;;;;;;8.07;5.43;;;10.70;99.90;;;;;;4982277;28;20868;-68
2023/03/31 04:14:49;;;;;;;10.13;6.03;;;10.70;99.90;;;;;;4977368;28;20477;-67
2023/03/31 04:17:17;;;;;;;9.07;5.37;;;10.70;99.90;;;;;;4974646;28;20461;-69
2023/03/31 04:19:49;;;;;;;10.30;5.57;;;10.70;99.90;;;;;;4987538;28;20488;-68
2023/03/31 04:22:19;;;;;;;9.67;5.97;;;10.70;99.90;;;;;;4971702;28;20695;-70
2023/03/31 04:24:51;;;;;;;8.47;5.50;;;10.70;99.90;;;;;;4977055;28;20560;-68
2023/03/31 04:27:19;;;;;;;11.37;7.00;;;10.80;99.90;;;;;;4972433;28;20591;-67
2023/03/31 04:29:53;;;;;;;14.80;6.93;;;10.70;99.90;;;;;;4975018;28;20639;-66
2023/03/31 04:32:21;;;;;;;12.23;7.00;;;10.80;99.90;;;;;;4977878;28;20485;-67
2023/03/31 04:34:50;;;;;;;13.00;7.40;;;10.70;99.90;;;;;;4974357;28;20508;-70
2023/03/31 04:37:19;;;;;;;9.60;6.90;;;10.70;99.90;;;;;;4980475;28;20556;-68
2023/03/31 04:39:49;;;;;;;10.67;7.33;;;10.70;99.90;;;;;;4984019;28;20481;-69
2023/03/31 04:42:17;;;;;;;10.90;6.80;;;10.80;99.90;;;;;;4967055;28;20493;-68
2023/03/31 04:44:45;;;;;;;14.67;7.57;;;10.80;99.90;;;;;;4982911;28;20485;-68
2023/03/31 04:47:13;;;;;;;9.23;7.33;;;10.80;99.90;;;;;;4982945;28;20505;-70
2023/03/31 04:49:41;;;;;;;11.03;7.97;;;10.80;99.90;;;;;;4976328;28;21001;-68
2023/03/31 04:52:09;;;;;;;10.50;7.40;;;10.80;99.90;;;;;;4981853;28;20474;-67
2023/03/31 04:54:38;;;;;;;12.50;7.27;;;10.80;99.90;;;;;;4980745;28;20469;-66
2023/03/31 04:57:06;;;;;;;11.87;8.40;;;10.80;99.90;;;;;;4973223;28;20469;-68
2023/03/31 04:59:34;;;;;;;13.13;7.93;;;10.80;99.90;;;;;;4977097;28;20535;-70
2023/03/31 05:02:02;;;;;;;13.63;8.00;;;10.80;99.90;;;;;;4962132;28;20814;-69
2023/03/31 05:04:30;;;;;;;9.27;7.43;;;10.80;99.90;;;;;;4960719;28;20535;-70
2023/03/31 05:06:58;;;;;;;13.40;8.70;;;10.80;99.90;;;;;;4977554;28;20493;-69
2023/03/31 05:09:26;;;;;;;9.53;7.77;;;10.80;99.90;;;;;;4976901;28;20777;-70
2023/03/31 05:11:56;;;;;;;13.40;7.63;;;10.80;99.90;;;;;;4979727;28;20505;-70
2023/03/31 05:14:24;;;;;;;13.00;7.77;;;10.80;99.90;;;;;;4986491;28;20504;-69
2023/03/31 05:16:52;;;;;;;15.30;8.23;;;10.80;99.90;;;;;;4978810;28;20468;-67
2023/03/31 05:19:20;;;;;;;11.20;7.87;;;10.90;99.90;;;;;;4981649;28;20496;-69
2023/03/31 05:21:48;;;;;;;15.30;8.70;;;10.90;99.90;;;;;;4974733;28;20502;-65
2023/03/31 05:24:16;;;;;;;10.60;7.13;;;10.90;99.90;;;;;;4964562;28;20477;-65
2023/03/31 05:26:48;;;;;;;12.80;8.17;;;10.90;99.90;;;;;;4963848;28;20496;-66
2023/03/31 05:29:18;;;;;;;12.37;8.03;;;10.90;99.90;;;;;;4960005;28;21722;-66
2023/03/31 05:31:45;;;;;;;12.37;8.27;;;10.90;99.90;;;;;;4944791;28;20496;-66
2023/03/31 05:34:14;;;;;;;10.80;8.03;;;10.90;99.90;;;;;;4950997;28;20473;-68
2023/03/31 05:36:43;;;;;;;11.70;7.80;;;10.80;99.90;;;;;;4949300;28;21103;-68
2023/03/31 05:39:11;;;;;;;11.30;7.77;;;10.80;99.90;;;;;;4953264;28;20476;-67
2023/03/31 05:41:39;;;;;;;10.57;7.40;;;10.80;99.90;;;;;;4956557;28;20559;-68
2023/03/31 05:44:07;;;;;;;11.37;7.20;;;10.80;99.90;;;;;;4955145;28;20492;-68
2023/03/31 05:46:36;;;;;;;9.97;8.27;;;10.80;99.90;;;;;;4970281;28;20480;-68
2023/03/31 05:49:05;;;;;;;11.03;8.47;;;10.80;99.90;;;;;;4971209;28;20468;-68
2023/03/31 05:51:33;;;;;;;12.60;7.93;;;10.80;99.90;;;;;;4966589;28;20580;-67
2023/03/31 05:54:01;;;;;;;13.80;8.53;;;10.80;99.90;;;;;;4967469;28;20576;-69
2023/03/31 05:56:29;;;;;;;11.60;7.90;;;10.80;99.90;;;;;;4971346;28;20472;-67
2023/03/31 05:58:59;;;;;;;14.40;8.57;;;10.80;99.90;;;;;;4970130;28;20471;-67
2023/03/31 06:01:28;;;;;;;13.87;8.57;;;10.80;99.90;;;;;;4973477;28;20503;-67
2023/03/31 06:03:58;;;;;;;11.87;8.47;;;10.80;99.90;;;;;;4966785;28;20870;-69
2023/03/31 06:06:26;;;;;;;12.53;9.13;;;10.80;99.90;;;;;;4968534;28;20527;-68
2023/03/31 06:08:54;;;;;;;10.63;7.73;;;10.90;99.90;;;;;;4982488;28;20496;-67
2023/03/31 06:11:23;;;;;;;12.90;7.70;;;10.90;99.90;;;;;;4975243;28;21586;-69
2023/03/31 06:13:51;;;;;;;12.50;7.23;;;10.90;99.90;;;;;;4977708;28;21041;-69
2023/03/31 06:16:19;;;;;;;9.70;7.07;;;10.90;99.90;;;;;;4980203;28;20469;-67
2023/03/31 06:18:47;;;;;;;12.23;7.50;;;10.90;99.90;;;;;;4977192;28;20802;-67
2023/03/31 06:21:17;;;;;;;12.00;7.40;;;11.00;99.90;;;;;;4977391;28;20496;-68
2023/03/31 06:23:46;;;;;;;11.50;7.50;;;11.00;99.90;;;;;;4975530;28;20492;-69
2023/03/31 06:26:16;;;;;;;9.77;7.20;;;11.00;99.90;;;;;;4961571;28;22066;-68
2023/03/31 06:28:44;;;;;;;11.30;6.97;;;11.00;99.90;;;;;;4974990;28;20501;-69
2023/03/31 06:31:14;;;;;;;11.03;6.80;;;11.00;99.90;;;;;;4975322;28;21052;-68
2023/03/31 06:33:43;;;;;;;8.30;6.50;;;11.10;99.90;;;;;;4957616;28;20590;-69
2023/03/31 06:36:13;;;;;;;11.03;6.50;;;11.10;99.90;;;;;;4960841;28;20478;-69
2023/03/31 06:38:43;;;;;;;9.10;6.57;;;11.10;99.90;;;;;;4959243;28;20529;-68
2023/03/31 06:41:13;;;;;;;12.50;7.40;;;11.10;99.90;;;;;;4960055;28;20497;-68
2023/03/31 06:43:41;;;;;;;10.43;6.80;;;11.20;99.90;;;;;;4962660;28;20497;-68
2023/03/31 06:46:09;;;;;;;9.47;6.90;;;11.20;99.90;;;;;;4961574;28;20493;-68
2023/03/31 06:48:38;;;;;;;13.03;6.90;;;11.20;99.90;;;;;;4963637;28;21295;-68
2023/03/31 06:51:07;;;;;;;10.33;6.50;;;11.20;99.90;;;;;;4955556;28;20498;-69
2023/03/31 06:53:35;;;;;;;11.17;6.67;;;11.20;99.90;;;;;;4964105;28;20513;-69
2023/03/31 06:56:06;;;;;;;13.90;7.20;;;11.20;99.90;;;;;;4964798;28;20477;-68
2023/03/31 06:58:35;;;;;;;9.97;6.60;;;11.20;99.90;;;;;;4954128;28;21036;-69
2023/03/31 07:01:04;;;;;;;10.20;7.23;;;11.20;99.90;;;;;;4962775;28;20587;-69
2023/03/31 07:03:33;;;;;;;11.43;6.90;;;11.30;99.90;;;;;;4948460;28;20486;-68
2023/03/31 07:06:01;;;;;;;9.63;6.30;;;11.30;99.90;;;;;;4952280;28;20481;-68
2023/03/31 07:08:29;;;;;;;9.77;6.27;;;11.30;99.90;;;;;;4960037;28;20486;-69
2023/03/31 07:10:59;;;;;;;11.27;7.37;;;11.30;99.90;;;;;;4948418;28;20483;-69
2023/03/31 07:13:29;;;;;;;8.87;6.60;;;11.40;99.90;;;;;;4957632;28;20486;-69
2023/03/31 07:15:57;;;;;;;9.10;6.00;;;11.40;99.90;;;;;;4952037;28;20548;-69
2023/03/31 07:18:30;;;;;;;12.93;6.70;;;11.40;99.90;;;;;;4962128;28;20591;-69
2023/03/31 07:21:02;;;;;;;9.93;6.87;;;11.40;99.90;;;;;;4965979;28;20544;-69
2023/03/31 07:23:32;;;;;;;9.43;7.10;;;11.50;99.90;;;;;;4960013;28;20580;-69
2023/03/31 07:26:01;;;;;;;10.27;6.40;;;11.50;99.90;;;;;;4954319;28;20489;-67
2023/03/31 07:28:31;;;;;;;10.50;7.13;;;11.50;99.90;;;;;;4958200;28;20577;-69
2023/03/31 07:31:00;;;;;;;8.83;6.40;;;11.60;99.90;;;;;;4962123;28;20497;-69
2023/03/31 07:33:28;;;;;;;10.10;7.80;;;11.60;99.90;;;;;;4944885;28;21034;-68
2023/03/31 07:35:56;;;;;;;8.03;6.07;;;11.60;99.90;;;;;;4956206;28;21009;-68
2023/03/31 07:38:40;;;;;;;9.13;6.83;;;11.60;99.90;;;;;;4962426;28;20481;-68
2023/03/31 07:41:11;;;;;;;11.30;6.40;;;11.60;99.90;;;;;;4954798;28;20593;-69
2023/03/31 07:43:42;;;;;;;9.97;6.80;;;11.60;99.90;;;;;;4956312;28;20573;-69
2023/03/31 07:46:16;;;;;;;8.87;7.23;;;11.60;99.90;;;;;;4955870;28;20477;-69
2023/03/31 07:48:46;;;;;;;9.40;7.60;;;11.70;99.90;;;;;;4961745;28;20499;-69
2023/03/31 07:51:15;;;;;;;12.90;8.87;;;11.70;99.90;;;;;;4961682;28;20490;-69
2023/03/31 07:53:43;;;;;;;8.90;7.60;;;11.60;99.90;;;;;;4976217;28;21029;-69
2023/03/31 07:56:12;;;;;;;10.13;8.30;;;11.70;99.90;;;;;;4968077;28;23706;-69
2023/03/31 07:58:44;;;;;;;11.20;7.13;;;11.60;99.90;;;;;;4967159;28;20474;-71
2023/03/31 08:01:15;;;;;;;11.03;7.10;;;11.70;99.90;;;;;;4971023;28;20579;-68
2023/03/31 08:03:43;;;;;;;11.03;7.77;;;11.70;99.90;;;;;;4969777;28;20592;-69
2023/03/31 08:06:12;;;;;;;8.27;6.73;;;11.70;99.90;;;;;;4972441;28;20480;-67
2023/03/31 08:08:41;;;;;;;9.57;7.87;;;11.70;99.90;;;;;;4971883;28;20520;-67
2023/03/31 08:11:10;;;;;;;10.47;7.27;;;11.70;99.90;;;;;;4972596;28;20560;-67
2023/03/31 08:13:37;;;;;;;7.50;6.80;;;11.70;99.90;;;;;;4974976;28;20499;-67
2023/03/31 08:16:07;;;;;;;10.20;7.17;;;11.60;99.90;;;;;;4976360;28;20505;-67
2023/03/31 08:18:36;;;;;;;7.27;5.57;;;11.60;99.90;;;;;;4968139;28;20966;-68
2023/03/31 08:21:04;;;;;;;8.10;6.00;;;11.50;99.90;;;;;;4973900;28;20500;-67
2023/03/31 08:23:32;;;;;;;6.70;5.30;;;11.50;99.90;;;;;;4968601;28;20510;-69
2023/03/31 08:26:09;;;;;;;7.37;5.90;;;11.50;99.90;;;;;;4969261;28;20481;-68
2023/03/31 08:28:37;;;;;;;6.10;5.50;;;11.40;99.90;;;;;;4963587;28;20492;-70
2023/03/31 08:31:07;;;;;;;8.77;5.67;;;11.40;99.90;;;;;;4971103;28;20492;-67
2023/03/31 08:33:36;;;;;;;7.10;5.90;;;11.40;99.90;;;;;;4971588;28;20572;-67
2023/03/31 08:36:07;;;;;;;7.40;5.90;;;11.40;99.90;;;;;;4971914;28;20477;-68
2023/03/31 08:38:37;;;;;;;8.77;6.10;;;11.40;99.90;;;;;;4971457;28;20504;-68
2023/03/31 08:41:12;;;;;;;7.00;6.07;;;11.40;99.90;;;;;;4969511;28;21037;-69
2023/03/31 08:43:45;;;;;;;8.23;6.07;;;11.40;99.90;;;;;;4969862;28;20496;-68
2023/03/31 08:46:17;;;;;;;10.60;5.87;;;11.40;99.90;;;;;;4968453;28;20477;-68
2023/03/31 08:48:49;;;;;;;6.70;6.03;;;11.50;99.90;;;;;;4965995;28;21057;-68
2023/03/31 08:51:21;;;;;;;7.00;6.20;;;11.50;99.90;;;;;;4973887;28;20492;-69
2023/03/31 08:53:52;;;;;;;6.07;5.47;;;11.50;99.90;;;;;;4972078;28;20599;-68
2023/03/31 08:56:23;;;;;;;4.97;4.60;;;11.50;99.90;;;;;;4972098;28;20480;-68
2023/03/31 08:58:52;;;;;;;5.30;4.80;;;11.50;99.90;;;;;;4970119;28;20466;-69
2023/03/31 09:01:30;;;;;;;7.80;5.20;;;11.40;99.90;;;;;;4966480;28;20508;-69
2023/03/31 09:04:29;;;;;;;8.00;5.10;;;11.40;99.90;;;;;;4971630;28;20485;-67
2023/03/31 09:07:02;;;;;;;6.40;5.80;;;11.40;99.90;;;;;;4970869;28;20481;-69
2023/03/31 09:09:40;;;;;;;7.87;5.83;;;11.40;99.90;;;;;;4972301;28;20493;-69
2023/03/31 09:12:16;;;;;;;6.60;5.70;;;11.40;99.90;;;;;;4971834;28;20497;-68
2023/03/31 09:14:50;;;;;;;6.30;5.50;;;11.40;99.90;;;;;;4971268;28;20479;-69
2023/03/31 09:17:24;;;;;;;6.73;5.30;;;11.40;99.90;;;;;;4978055;28;20895;-69
2023/03/31 09:19:56;;;;;;;7.40;5.23;;;11.40;99.90;;;;;;4978109;28;20588;-69
2023/03/31 09:22:29;;;;;;;6.10;5.03;;;11.30;99.90;;;;;;4966367;28;20498;-69
2023/03/31 09:25:01;;;;;;;6.13;5.00;;;11.40;99.90;;;;;;4972222;28;20500;-68
2023/03/31 09:27:31;;;;;;;8.10;4.77;;;11.40;99.90;;;;;;4972140;28;20477;-69
2023/03/31 09:30:04;;;;;;;6.40;5.23;;;11.40;99.90;;;;;;4975616;28;20496;-69
2023/03/31 09:32:33;;;;;;;5.37;4.30;;;11.40;99.90;;;;;;4975467;28;20501;-69
2023/03/31 09:35:12;;;;;;;6.03;4.67;;;11.40;99.90;;;;;;4968509;28;20466;-67
2023/03/31 09:37:40;;;;;;;6.67;4.27;;;11.40;99.90;;;;;;4973739;28;20481;-68
2023/03/31 09:40:16;;;;;;;4.33;3.77;;;11.50;99.90;;;;;;4976877;28;20534;-67
2023/03/31 09:42:45;;;;;;;5.23;4.43;;;11.50;99.90;;;;;;4977005;28;20501;-68
2023/03/31 09:45:16;;;;;;;5.20;3.60;;;11.50;99.90;;;;;;4986184;28;20465;-69
2023/03/31 09:47:50;;;;;;;5.20;4.43;;;11.50;99.90;;;;;;4983682;28;20468;-68
2023/03/31 09:50:19;;;;;;;5.23;4.10;;;11.60;99.90;;;;;;4982250;28;20495;-68
2023/03/31 09:52:55;;;;;;;3.97;3.67;;;11.60;99.90;;;;;;4981786;28;20998;-68
2023/03/31 09:55:27;;;;;;;5.57;3.57;;;11.60;99.90;;;;;;4967288;28;22688;-68
2023/03/31 09:58:07;;;;;;;7.17;4.17;;;11.60;99.90;;;;;;4980473;28;21536;-69
2023/03/31 10:00:36;;;;;;;6.23;3.83;;;11.60;99.90;;;;;;4979919;28;21053;-68
2023/03/31 10:03:07;;;;;;;5.07;3.83;;;11.60;99.90;;;;;;4975417;28;20492;-68
2023/03/31 10:05:38;;;;;;;4.50;4.00;;;11.70;99.90;;;;;;4986724;28;20912;-69
2023/03/31 10:08:23;;;;;;;5.63;4.37;;;11.70;99.90;;;;;;4978495;28;20548;-71
2023/03/31 10:10:54;;;;;;;7.33;4.43;;;11.70;99.90;;;;;;4979919;28;20509;-69
2023/03/31 10:13:24;;;;;;;6.40;4.70;;;11.70;99.90;;;;;;4984179;28;20496;-69
2023/03/31 10:15:54;;;;;;;5.17;4.37;;;11.70;99.90;;;;;;4983232;28;20469;-68
2023/03/31 10:18:33;;;;;;;6.60;4.13;;;11.70;99.90;;;;;;4982803;28;20483;-69
2023/03/31 10:21:03;;;;;;;5.30;4.60;;;11.70;99.90;;;;;;4992233;28;20576;-68
2023/03/31 10:23:34;;;;;;;4.97;4.07;;;11.80;99.90;;;;;;4987404;28;21005;-69
2023/03/31 10:26:03;;;;;;;5.97;4.60;;;11.80;99.90;;;;;;4978100;28;20477;-68
2023/03/31 10:28:34;;;;;;;4.83;4.23;;;11.80;99.90;;;;;;4979275;28;20860;-67
2023/03/31 10:31:03;;;;;;;6.57;4.70;;;11.80;99.90;;;;;;4970497;28;20875;-67
2023/03/31 10:33:36;;;;;;;5.70;4.83;;;11.80;99.90;;;;;;4959905;28;20534;-68
2023/03/31 10:36:14;;;;;;;6.33;4.43;;;11.80;99.90;;;;;;4972512;28;20472;-65
2023/03/31 10:38:45;;;;;;;5.90;4.43;;;11.80;99.90;;;;;;4972586;28;20503;-67
2023/03/31 10:41:20;;;;;;;5.03;4.57;;;11.80;99.90;;;;;;4978663;28;20492;-67
2023/03/31 10:43:52;;;;;;;5.03;4.53;;;11.90;99.90;;;;;;4976674;28;20495;-68
2023/03/31 10:46:20;;;;;;;5.20;4.80;;;11.90;99.90;;;;;;4964334;28;21114;-66
2023/03/31 10:48:51;;;;;;;5.97;4.30;;;11.90;99.90;;;;;;4961760;28;20477;-67
2023/03/31 10:51:21;;;;;;;4.87;4.33;;;11.90;99.90;;;;;;4967401;28;20576;-67
2023/03/31 10:53:51;;;;;;;4.93;4.50;;;12.00;99.90;;;;;;4971692;28;20511;-66
2023/03/31 10:56:35;;;;;;;6.00;4.43;;;12.10;99.90;;;;;;4975688;28;20469;-67
2023/03/31 10:59:26;;;;;;;5.00;4.50;;;12.10;99.90;;;;;;4976471;28;20503;-66
2023/03/31 11:02:37;;;;;;;5.40;4.07;;;12.10;99.90;;;;;;4970479;28;20492;-68
2023/03/31 11:05:14;;;;;;;4.53;4.13;;;12.10;99.90;;;;;;4979760;28;20572;-67
2023/03/31 11:07:53;;;;;;;4.67;4.23;;;12.20;99.90;;;;;;4983495;28;20472;-65
2023/03/31 11:10:41;;;;;;;5.33;4.83;;;12.20;99.90;;;;;;4990188;28;20500;-69
2023/03/31 11:13:16;;;;;;;4.30;3.83;;;12.20;99.90;;;;;;4990843;28;20489;-67
2023/03/31 11:15:54;;;;;;;4.53;4.13;;;12.20;99.90;;;;;;4995042;28;20468;-66
2023/03/31 11:18:36;;;;;;;5.30;3.93;;;12.20;99.90;;;;;;4984072;28;20479;-66
2023/03/31 11:21:19;;;;;;;5.33;4.23;;;12.20;99.90;;;;;;4980901;28;20809;-67
2023/03/31 11:23:54;;;;;;;5.03;3.97;;;12.20;99.90;;;;;;4982709;28;21278;-67
2023/03/31 11:26:29;;;;;;;4.27;3.80;;;12.30;99.90;;;;;;4978181;28;20479;-67
2023/03/31 11:29:10;;;;;;;4.37;3.77;;;12.30;99.90;;;;;;4973739;28;20571;-67
2023/03/31 11:31:50;;;;;;;5.20;3.97;;;12.30;99.90;;;;;;4973895;28;20497;-67
2023/03/31 11:34:30;;;;;;;4.73;3.80;;;12.40;99.90;;;;;;4984214;28;20472;-67
2023/03/31 11:37:21;;;;;;;4.47;3.00;;;12.40;99.90;;;;;;4983765;28;20482;-66
2023/03/31 11:40:04;;;;;;;3.50;3.20;;;12.40;99.90;;;;;;4981634;28;20473;-68
2023/03/31 11:42:37;;;;;;;3.83;3.53;;;12.40;99.90;;;;;;4966096;28;20493;-68
2023/03/31 11:45:14;;;;;;;3.60;3.30;;;12.40;99.90;;;;;;4974552;28;20549;-67
2023/03/31 11:47:46;;;;;;;4.43;3.70;;;12.30;99.90;;;;;;4985054;28;20973;-67
2023/03/31 11:50:19;;;;;;;4.77;4.13;;;12.30;99.90;;;;;;4978170;28;20595;-66
2023/03/31 11:52:56;;;;;;;5.83;4.43;;;12.30;99.90;;;;;;4974889;28;20489;-67
2023/03/31 11:55:26;;;;;;;4.60;4.20;;;12.30;99.90;;;;;;4978708;28;20493;-67
2023/03/31 11:58:02;;;;;;;3.33;2.97;;;12.30;99.90;;;;;;4972889;28;20472;-68
2023/03/31 12:00:32;;;;;;;3.30;3.00;;;12.30;99.90;;;;;;4981489;28;20503;-66
2023/03/31 12:03:09;;;;;;;3.20;2.90;;;12.20;99.90;;;;;;4974538;28;21534;-67
2023/03/31 12:05:43;;;;;;;2.70;2.50;;;12.20;99.90;;;;;;4979993;28;20497;-68
2023/03/31 12:08:18;;;;;;;3.40;2.87;;;12.10;99.90;;;;;;4981772;28;20569;-67
2023/03/31 12:10:50;;;;;;;2.90;2.67;;;12.00;99.90;;;;;;4981635;28;20564;-67
2023/03/31 12:13:40;;;;;;;5.33;2.87;;;11.90;99.90;;;;;;4981557;28;21069;-70
2023/03/31 12:16:13;;;;;;;2.97;2.77;;;11.90;99.90;;;;;;4974596;28;20915;-67
2023/03/31 12:18:47;;;;;;;3.63;3.33;;;11.80;99.90;;;;;;4983873;28;20476;-67
2023/03/31 12:21:15;;;;;;;4.03;3.60;;;11.80;99.90;;;;;;4979868;28;20496;-67
2023/03/31 12:23:46;;;;;;;3.93;3.53;;;11.70;99.90;;;;;;4966603;28;20491;-66
2023/03/31 12:26:35;;;;;;;3.57;3.27;;;11.70;99.90;;;;;;4978622;28;20835;-68
2023/03/31 12:29:07;;;;;;;3.93;3.23;;;11.70;99.90;;;;;;4974625;28;20477;-66
2023/03/31 12:31:39;;;;;;;3.37;3.13;;;11.70;99.90;;;;;;4973352;28;20506;-68
2023/03/31 12:34:11;;;;;;;4.63;4.07;;;11.70;99.90;;;;;;4977894;28;20539;-66
2023/03/31 12:36:51;;;;;;;4.23;3.70;;;11.70;99.90;;;;;;4983460;28;20564;-67
2023/03/31 12:39:34;;;;;;;4.73;4.33;;;11.70;99.90;;;;;;4977006;28;20484;-66
2023/03/31 12:42:28;;;;;;;5.37;3.50;;;11.70;99.90;;;;;;4973694;28;21059;-66
2023/03/31 12:45:02;;;;;;;4.20;3.80;;;11.60;99.90;;;;;;4974433;28;20479;-65
2023/03/31 12:47:51;;;;;;;4.40;4.00;;;11.60;99.90;;;;;;4979420;28;21030;-64
2023/03/31 12:50:38;;;;;;;4.37;3.97;;;11.60;99.90;;;;;;4975663;28;20493;-66
2023/03/31 12:53:19;;;;;;;5.17;4.67;;;11.60;99.90;;;;;;4976372;28;20523;-66
2023/03/31 12:55:50;;;;;;;4.87;4.33;;;11.60;99.90;;;;;;4964005;28;20967;-66
2023/03/31 12:58:40;;;;;;;4.67;4.37;;;11.60;99.90;;;;;;4972953;28;21001;-66
2023/03/31 13:01:13;;;;;;;5.20;4.57;;;11.60;99.90;;;;;;4964341;28;20582;-67
2023/03/31 13:03:50;;;;;;;5.30;4.90;;;11.60;99.90;;;;;;4967841;28;21069;-67
2023/03/31 13:06:48;;;;;;;6.33;5.40;;;11.60;99.90;;;;;;4976077;28;20543;-67
2023/03/31 13:09:44;;;;;;;6.13;5.53;;;11.60;99.90;;;;;;4960084;28;22134;-66
2023/03/31 13:12:19;;;;;;;5.83;5.33;;;11.60;99.90;;;;;;4970512;28;20484;-67